Time;durP1;ratioP1;P1;durP2;ratioP2;P2;SDS_P1;SDS_P2;PMS_P1;PMS_P2;Temp;Humidity;BMP_temperature;BMP_pressure;BME280_temperature;BME280_humidity;BME280_pressure;Samples;Min_cycle;Max_cycle;Signal;HPM_P1;HPM_P2
2022/12/09 00:00:20;;;;;;;11.00;5.53;;;;;;;;;;5008506;28;20091;-59
2022/12/09 00:02:46;;;;;;;12.37;6.10;;;;;;;;;;5005542;28;20022;-60
2022/12/09 00:05:11;;;;;;;11.65;5.93;;;;;;;;;;5010342;28;20109;-58
2022/12/09 00:07:36;;;;;;;12.68;6.32;;;;;;;;;;5004940;28;20071;-59
2022/12/09 00:10:02;;;;;;;11.37;6.33;;;;;;;;;;5008015;28;20036;-58
2022/12/09 00:12:27;;;;;;;10.18;5.57;;;;;;;;;;5008548;28;20022;-59
2022/12/09 00:14:53;;;;;;;13.67;6.50;;;;;;;;;;5009111;28;20103;-60
2022/12/09 00:17:18;;;;;;;11.48;5.97;;;;;;;;;;5008819;28;20022;-57
2022/12/09 00:19:44;;;;;;;12.13;5.43;;;;;;;;;;5007366;28;20026;-57
2022/12/09 00:22:09;;;;;;;13.77;6.47;;;;;;;;;;5007192;28;20032;-59
2022/12/09 00:24:35;;;;;;;13.07;5.80;;;;;;;;;;5006705;28;20025;-59
2022/12/09 00:27:00;;;;;;;10.97;5.93;;;;;;;;;;5005424;28;20034;-57
2022/12/09 00:29:25;;;;;;;11.18;5.65;;;;;;;;;;5010206;28;20025;-58
2022/12/09 00:31:50;;;;;;;10.77;6.13;;;;;;;;;;5007137;28;20036;-59
2022/12/09 00:34:15;;;;;;;13.77;6.40;;;;;;;;;;5006620;28;20593;-59
2022/12/09 00:36:40;;;;;;;12.87;6.33;;;;;;;;;;5008763;28;20112;-59
2022/12/09 00:39:06;;;;;;;11.17;5.63;;;;;;;;;;5007305;28;20413;-59
2022/12/09 00:41:31;;;;;;;13.97;6.50;;;;;;;;;;5008611;28;20527;-58
2022/12/09 00:43:57;;;;;;;11.10;5.83;;;;;;;;;;5004711;28;20084;-58
2022/12/09 00:46:22;;;;;;;14.02;6.75;;;;;;;;;;5009324;28;20037;-58
2022/12/09 00:48:47;;;;;;;13.40;7.03;;;;;;;;;;5020079;28;20026;-58
2022/12/09 00:51:14;;;;;;;14.23;7.27;;;;;;;;;;5006590;28;20036;-58
2022/12/09 00:53:39;;;;;;;12.88;6.30;;;;;;;;;;5006123;28;20096;-59
2022/12/09 00:56:04;;;;;;;13.17;6.93;;;;;;;;;;5010227;28;20144;-58
2022/12/09 00:58:30;;;;;;;12.70;6.30;;;;;;;;;;5022162;28;20038;-58
2022/12/09 01:00:55;;;;;;;13.67;6.33;;;;;;;;;;5008829;28;20030;-58
2022/12/09 01:03:20;;;;;;;13.05;6.38;;;;;;;;;;5013388;28;20025;-58
2022/12/09 01:05:46;;;;;;;12.10;6.40;;;;;;;;;;5006879;28;20022;-59
2022/12/09 01:08:11;;;;;;;13.55;6.90;;;;;;;;;;5010718;28;20071;-58
2022/12/09 01:10:38;;;;;;;12.70;6.22;;;;;;;;;;5014420;28;20647;-59
2022/12/09 01:13:03;;;;;;;13.02;6.38;;;;;;;;;;5011453;28;20050;-59
2022/12/09 01:15:29;;;;;;;11.10;5.60;;;;;;;;;;5010577;28;20030;-58
2022/12/09 01:17:54;;;;;;;11.40;5.95;;;;;;;;;;5009623;28;20460;-59
2022/12/09 01:20:19;;;;;;;13.60;6.77;;;;;;;;;;5007051;28;20033;-59
2022/12/09 01:22:45;;;;;;;12.77;6.20;;;;;;;;;;5011649;28;20093;-59
2022/12/09 01:25:10;;;;;;;12.50;6.72;;;;;;;;;;5008583;28;20030;-58
2022/12/09 01:27:35;;;;;;;13.67;6.40;;;;;;;;;;5010861;28;20093;-58
2022/12/09 01:30:01;;;;;;;12.83;6.37;;;;;;;;;;5012559;28;20389;-58
2022/12/09 01:32:26;;;;;;;13.70;6.80;;;;;;;;;;5011147;28;20105;-58
2022/12/09 01:34:51;;;;;;;13.97;7.03;;;;;;;;;;5013686;28;20029;-57
2022/12/09 01:37:16;;;;;;;13.97;6.37;;;;;;;;;;5008516;28;20866;-58
2022/12/09 01:39:41;;;;;;;11.77;5.90;;;;;;;;;;5012678;28;20105;-57
2022/12/09 01:42:16;;;;;;;12.90;6.47;;;;;;;;;;5010179;28;20022;-58
2022/12/09 01:45:01;;;;;;;14.15;6.95;;;;;;;;;;5009060;28;20485;-59
2022/12/09 01:47:26;;;;;;;14.00;6.85;;;;;;;;;;4998350;28;20045;-58
2022/12/09 01:49:52;;;;;;;14.43;6.47;;;;;;;;;;5012444;28;20026;-58
2022/12/09 01:52:19;;;;;;;12.67;6.00;;;;;;;;;;5007721;28;20037;-58
2022/12/09 01:54:44;;;;;;;;;;;;;;;;;;5009736;28;20026;-58
2022/12/09 01:57:09;;;;;;;10.65;5.60;;;;;;;;;;5024106;28;19916;-58
2022/12/09 01:59:35;;;;;;;13.48;6.15;;;;;;;;;;5011120;28;20022;-57
2022/12/09 02:02:02;;;;;;;12.05;5.97;;;;;;;;;;5011454;28;20065;-57
2022/12/09 02:04:28;;;;;;;12.80;6.28;;;;;;;;;;5020503;28;20079;-57
2022/12/09 02:06:53;;;;;;;13.77;6.65;;;;;;;;;;5009226;28;20021;-58
2022/12/09 02:09:18;;;;;;;12.93;6.03;;;;;;;;;;5010844;28;20546;-58
2022/12/09 02:11:56;;;;;;;11.43;5.73;;;;;;;;;;5011132;28;20060;-57
2022/12/09 02:14:37;;;;;;;12.40;6.30;;;;;;;;;;5012413;28;20049;-57
2022/12/09 02:17:02;;;;;;;11.32;6.20;;;;;;;;;;5003641;28;20108;-57
2022/12/09 02:19:42;;;;;;;10.82;5.07;;;;;;;;;;5016924;28;20445;-57
2022/12/09 02:22:10;;;;;;;11.35;5.53;;;;;;;;;;5013373;28;20025;-58
2022/12/09 02:24:45;;;;;;;12.32;5.75;;;;;;;;;;5009900;28;20028;-59
2022/12/09 02:27:10;;;;;;;12.77;6.13;;;;;;;;;;5008996;28;20029;-58
2022/12/09 02:29:35;;;;;;;12.50;6.10;;;;;;;;;;5010840;28;20403;-58
2022/12/09 02:32:19;;;;;;;11.03;5.73;;;;;;;;;;5011274;28;20099;-58
2022/12/09 02:34:48;;;;;;;11.80;5.60;;;;;;;;;;5011520;28;20026;-58
2022/12/09 02:37:16;;;;;;;11.18;5.75;;;;;;;;;;5009286;28;20080;-58
2022/12/09 02:39:50;;;;;;;12.02;5.65;;;;;;;;;;5011068;28;20594;-57
2022/12/09 02:42:16;;;;;;;10.07;4.93;;;;;;;;;;5011127;28;20049;-58
2022/12/09 02:44:42;;;;;;;9.82;5.18;;;;;;;;;;5010999;28;20049;-58
2022/12/09 02:47:08;;;;;;;9.70;5.25;;;;;;;;;;5009938;28;20476;-57
2022/12/09 02:49:34;;;;;;;10.05;5.13;;;;;;;;;;5010265;28;20024;-58
2022/12/09 02:52:00;;;;;;;9.23;4.85;;;;;;;;;;5009698;28;20162;-58
2022/12/09 02:54:26;;;;;;;10.32;5.03;;;;;;;;;;5009580;28;20022;-58
2022/12/09 02:56:54;;;;;;;12.07;4.68;;;;;;;;;;5010591;28;20097;-58
2022/12/09 02:59:20;;;;;;;9.10;4.40;;;;;;;;;;5010713;28;20045;-58
2022/12/09 03:01:50;;;;;;;9.38;4.75;;;;;;;;;;5010422;28;20101;-57
2022/12/09 03:04:18;;;;;;;10.35;5.25;;;;;;;;;;5009719;28;20037;-57
2022/12/09 03:06:46;;;;;;;10.63;4.78;;;;;;;;;;5009531;28;20057;-58
2022/12/09 03:09:13;;;;;;;11.27;5.18;;;;;;;;;;5007533;28;20416;-58
2022/12/09 03:11:38;;;;;;;;;;;;;;;;;;5010889;28;20510;-58
2022/12/09 03:14:09;;;;;;;8.57;4.47;;;;;;;;;;5007935;28;20396;-58
2022/12/09 03:16:34;;;;;;;11.40;5.18;;;;;;;;;;5014787;28;20592;-58
2022/12/09 03:19:08;;;;;;;9.75;4.70;;;;;;;;;;5014334;28;20573;-58
2022/12/09 03:21:35;;;;;;;9.88;4.20;;;;;;;;;;5009749;28;20032;-58
2022/12/09 03:24:01;;;;;;;9.93;4.70;;;;;;;;;;5011369;28;20025;-58
2022/12/09 03:26:27;;;;;;;10.75;5.10;;;;;;;;;;5010791;28;20014;-58
2022/12/09 03:28:53;;;;;;;10.02;4.97;;;;;;;;;;5007590;28;20105;-58
2022/12/09 03:31:20;;;;;;;9.35;4.60;;;;;;;;;;5008336;28;20046;-58
2022/12/09 03:33:46;;;;;;;9.18;4.57;;;;;;;;;;5007360;28;20033;-58
2022/12/09 03:36:12;;;;;;;10.75;5.13;;;;;;;;;;5019865;28;20435;-59
2022/12/09 03:38:39;;;;;;;11.07;5.25;;;;;;;;;;5009211;28;20096;-59
2022/12/09 03:41:13;;;;;;;11.07;5.03;;;;;;;;;;5007937;28;20032;-59
2022/12/09 03:43:41;;;;;;;9.93;4.80;;;;;;;;;;5009856;28;20036;-59
2022/12/09 03:46:07;;;;;;;9.90;4.70;;;;;;;;;;5009944;28;20014;-59
2022/12/09 03:48:32;;;;;;;10.63;4.50;;;;;;;;;;5011716;28;20018;-58
2022/12/09 03:50:59;;;;;;;10.27;5.20;;;;;;;;;;5007235;28;20499;-59
2022/12/09 03:53:31;;;;;;;10.82;5.47;;;;;;;;;;5009141;28;20033;-58
2022/12/09 03:56:00;;;;;;;10.07;5.05;;;;;;;;;;5009486;28;20029;-59
2022/12/09 03:58:26;;;;;;;10.63;4.68;;;;;;;;;;5009564;28;20018;-60
2022/12/09 04:00:51;;;;;;;10.68;4.90;;;;;;;;;;5016631;28;20029;-59
2022/12/09 04:03:17;;;;;;;11.50;5.40;;;;;;;;;;5009846;28;20369;-59
2022/12/09 04:05:42;;;;;;;9.88;4.80;;;;;;;;;;5013008;28;20595;-59
2022/12/09 04:08:07;;;;;;;11.23;5.70;;;;;;;;;;5018609;28;20037;-59
2022/12/09 04:10:33;;;;;;;10.45;5.03;;;;;;;;;;5008487;28;20030;-58
2022/12/09 04:12:58;;;;;;;9.53;5.07;;;;;;;;;;5006376;28;20042;-58
2022/12/09 04:15:23;;;;;;;11.00;4.80;;;;;;;;;;5000599;28;20032;-58
2022/12/09 04:17:48;;;;;;;11.93;5.80;;;;;;;;;;5009760;28;20022;-59
2022/12/09 04:20:13;;;;;;;10.13;5.30;;;;;;;;;;5008327;28;20032;-58
2022/12/09 04:22:38;;;;;;;10.23;5.10;;;;;;;;;;5007771;28;20033;-58
2022/12/09 04:25:04;;;;;;;11.20;5.55;;;;;;;;;;5007161;28;20022;-58
2022/12/09 04:27:29;;;;;;;10.85;5.30;;;;;;;;;;5007466;28;20094;-57
2022/12/09 04:29:54;;;;;;;11.50;5.22;;;;;;;;;;5008748;28;20029;-58
2022/12/09 04:32:19;;;;;;;11.07;5.17;;;;;;;;;;5007437;28;20026;-58
2022/12/09 04:34:45;;;;;;;11.73;5.60;;;;;;;;;;5007231;28;20117;-58
2022/12/09 04:37:10;;;;;;;9.93;5.03;;;;;;;;;;5005485;28;20020;-58
2022/12/09 04:39:35;;;;;;;10.20;5.47;;;;;;;;;;5009657;28;20033;-58
2022/12/09 04:42:00;;;;;;;11.27;5.50;;;;;;;;;;5006042;28;20026;-58
2022/12/09 04:44:25;;;;;;;11.10;5.23;;;;;;;;;;5007001;28;20030;-58
2022/12/09 04:46:50;;;;;;;10.43;4.90;;;;;;;;;;5009122;28;20030;-58
2022/12/09 04:49:16;;;;;;;10.23;5.33;;;;;;;;;;5009829;28;20053;-58
2022/12/09 04:51:41;;;;;;;11.63;6.00;;;;;;;;;;5007394;28;20490;-58
2022/12/09 04:54:06;;;;;;;8.98;4.72;;;;;;;;;;5016094;28;20049;-59
2022/12/09 04:56:31;;;;;;;10.52;5.28;;;;;;;;;;5008040;28;20041;-58
2022/12/09 04:58:56;;;;;;;11.13;5.70;;;;;;;;;;5007115;28;20520;-58
2022/12/09 05:01:22;;;;;;;11.90;5.53;;;;;;;;;;5006821;28;20037;-59
2022/12/09 05:03:48;;;;;;;10.30;5.10;;;;;;;;;;5021936;28;20426;-58
2022/12/09 05:06:14;;;;;;;10.55;4.75;;;;;;;;;;5005601;28;20092;-58
2022/12/09 05:08:39;;;;;;;10.98;5.10;;;;;;;;;;5011084;28;20018;-58
2022/12/09 05:11:05;;;;;;;11.38;5.10;;;;;;;;;;5010018;28;20472;-58
2022/12/09 05:13:30;;;;;;;10.87;5.23;;;;;;;;;;5011866;28;20446;-58
2022/12/09 05:16:05;;;;;;;13.27;6.10;;;;;;;;;;5014687;28;20491;-58
2022/12/09 05:18:30;;;;;;;10.77;4.80;;;;;;;;;;5006783;28;20018;-59
2022/12/09 05:20:56;;;;;;;12.43;5.23;;;;;;;;;;5004980;28;20037;-58
2022/12/09 05:23:21;;;;;;;11.73;5.67;;;;;;;;;;5002676;28;20384;-57
2022/12/09 05:25:46;;;;;;;10.63;5.28;;;;;;;;;;5005778;28;20449;-58
2022/12/09 05:28:11;;;;;;;13.60;6.60;;;;;;;;;;5006577;28;20025;-58
2022/12/09 05:30:37;;;;;;;11.57;5.50;;;;;;;;;;5004831;28;20030;-58
2022/12/09 05:33:02;;;;;;;11.00;5.20;;;;;;;;;;4999940;28;20026;-59
2022/12/09 05:35:27;;;;;;;12.02;6.43;;;;;;;;;;5001894;28;20021;-59
2022/12/09 05:37:53;;;;;;;13.77;6.20;;;;;;;;;;5003633;28;20538;-59
2022/12/09 05:40:18;;;;;;;12.80;6.03;;;;;;;;;;5007478;28;20037;-60
2022/12/09 05:42:43;;;;;;;11.03;5.47;;;;;;;;;;4987114;28;20021;-59
2022/12/09 05:45:09;;;;;;;11.27;5.67;;;;;;;;;;5005596;28;20471;-60
2022/12/09 05:47:35;;;;;;;13.32;6.13;;;;;;;;;;4999019;28;20108;-58
2022/12/09 05:50:00;;;;;;;11.52;5.60;;;;;;;;;;4987021;28;20473;-58
2022/12/09 05:52:26;;;;;;;11.07;5.70;;;;;;;;;;5002296;28;20060;-58
2022/12/09 05:54:51;;;;;;;11.27;5.10;;;;;;;;;;5004787;28;20772;-59
2022/12/09 05:57:16;;;;;;;13.30;5.80;;;;;;;;;;5006365;28;20065;-58
2022/12/09 05:59:41;;;;;;;13.53;6.43;;;;;;;;;;5000005;28;20115;-58
2022/12/09 06:02:06;;;;;;;12.07;5.90;;;;;;;;;;5002979;28;20478;-58
2022/12/09 06:04:31;;;;;;;14.60;6.93;;;;;;;;;;5002417;28;20215;-60
2022/12/09 06:06:57;;;;;;;15.37;7.50;;;;;;;;;;5003670;28;20118;-59
2022/12/09 06:09:22;;;;;;;14.30;6.10;;;;;;;;;;5003554;28;20033;-59
2022/12/09 06:11:47;;;;;;;15.57;7.73;;;;;;;;;;5003977;28;20112;-60
2022/12/09 06:14:12;;;;;;;14.43;7.67;;;;;;;;;;4999954;28;20464;-60
2022/12/09 06:16:37;;;;;;;17.17;8.33;;;;;;;;;;4997763;28;20105;-61
2022/12/09 06:19:03;;;;;;;16.73;7.60;;;;;;;;;;5006318;28;20037;-61
2022/12/09 06:21:28;;;;;;;15.35;6.95;;;;;;;;;;5011030;28;20021;-60
2022/12/09 06:23:53;;;;;;;13.93;7.03;;;;;;;;;;5005919;28;21813;-60
2022/12/09 06:26:20;;;;;;;12.63;6.50;;;;;;;;;;5011247;28;20025;-60
2022/12/09 06:28:45;;;;;;;;;;;;;;;;;;5011197;28;20025;-60
2022/12/09 06:31:11;;;;;;;13.82;6.72;;;;;;;;;;5014230;28;19909;-60
2022/12/09 06:33:36;;;;;;;12.75;6.63;;;;;;;;;;5032045;28;20047;-61
2022/12/09 06:36:02;;;;;;;14.53;7.23;;;;;;;;;;5016420;28;20025;-60
2022/12/09 06:38:27;;;;;;;15.10;7.07;;;;;;;;;;5013036;28;20109;-60
2022/12/09 06:40:53;;;;;;;16.77;7.73;;;;;;;;;;5011117;28;20041;-60
2022/12/09 06:43:18;;;;;;;16.63;7.83;;;;;;;;;;5002230;28;20055;-60
2022/12/09 06:45:43;;;;;;;17.50;8.13;;;;;;;;;;5000163;28;20020;-60
2022/12/09 06:48:08;;;;;;;20.47;8.70;;;;;;;;;;5012412;28;20029;-60
2022/12/09 06:50:33;;;;;;;16.73;8.03;;;;;;;;;;5011162;28;20033;-60
2022/12/09 06:52:58;;;;;;;17.70;7.77;;;;;;;;;;5006334;28;20463;-60
2022/12/09 06:55:24;;;;;;;19.63;8.70;;;;;;;;;;5001891;28;20575;-60
2022/12/09 06:57:49;;;;;;;18.03;7.47;;;;;;;;;;5009869;28;20022;-60
2022/12/09 07:00:14;;;;;;;16.47;7.43;;;;;;;;;;5010708;28;20487;-60
2022/12/09 07:02:39;;;;;;;20.08;9.07;;;;;;;;;;5018869;28;20029;-61
2022/12/09 07:05:05;;;;;;;20.67;9.47;;;;;;;;;;5015605;28;20025;-61
2022/12/09 07:07:30;;;;;;;22.70;8.80;;;;;;;;;;5021192;28;20032;-60
2022/12/09 07:09:55;;;;;;;20.05;8.82;;;;;;;;;;5026637;28;20020;-59
2022/12/09 07:12:21;;;;;;;21.80;9.33;;;;;;;;;;5008795;28;21492;-59
2022/12/09 07:14:46;;;;;;;20.67;9.23;;;;;;;;;;5004640;28;20457;-58
2022/12/09 07:17:18;;;;;;;22.20;9.07;;;;;;;;;;5007956;28;20049;-58
2022/12/09 07:19:43;;;;;;;23.17;9.00;;;;;;;;;;5008506;28;20022;-59
2022/12/09 07:22:08;;;;;;;23.90;9.67;;;;;;;;;;5008968;28;20030;-59
2022/12/09 07:24:33;;;;;;;20.57;10.13;;;;;;;;;;5011404;28;20437;-59
2022/12/09 07:26:59;;;;;;;22.47;9.50;;;;;;;;;;5006251;28;20472;-60
2022/12/09 07:29:24;;;;;;;22.27;10.10;;;;;;;;;;5008135;28;20036;-59
2022/12/09 07:31:49;;;;;;;20.70;9.55;;;;;;;;;;5007485;28;20149;-59
2022/12/09 07:34:14;;;;;;;22.52;10.25;;;;;;;;;;5006336;28;20029;-59
2022/12/09 07:36:40;;;;;;;22.23;8.87;;;;;;;;;;5010794;28;20034;-59
2022/12/09 07:39:07;;;;;;;22.67;9.32;;;;;;;;;;5008989;28;20092;-59
2022/12/09 07:41:32;;;;;;;;;;;;;;;;;;5012588;28;20025;-60
2022/12/09 07:43:57;;;;;;;20.00;9.00;;;;;;;;;;5009459;28;19924;-60
2022/12/09 07:46:23;;;;;;;21.03;8.47;;;;;;;;;;5007092;28;20033;-59
2022/12/09 07:48:48;;;;;;;20.27;8.45;;;;;;;;;;5009074;28;20046;-58
2022/12/09 07:51:13;;;;;;;23.90;9.43;;;;;;;;;;5011280;28;20079;-60
2022/12/09 07:53:39;;;;;;;20.33;9.27;;;;;;;;;;5006713;28;20032;-59
2022/12/09 07:56:05;;;;;;;17.73;8.10;;;;;;;;;;4994684;28;20064;-59
2022/12/09 07:58:31;;;;;;;21.98;9.52;;;;;;;;;;5006757;28;20087;-59
2022/12/09 08:00:56;;;;;;;18.20;8.77;;;;;;;;;;5010947;28;20033;-60
2022/12/09 08:03:21;;;;;;;20.00;9.30;;;;;;;;;;5008428;28;20093;-59
2022/12/09 08:05:47;;;;;;;18.43;9.33;;;;;;;;;;4998949;28;20468;-59
2022/12/09 08:08:12;;;;;;;20.50;9.07;;;;;;;;;;5010996;28;20105;-59
2022/12/09 08:10:37;;;;;;;19.63;9.43;;;;;;;;;;5010857;28;20132;-60
2022/12/09 08:13:02;;;;;;;22.00;8.97;;;;;;;;;;5010469;28;20160;-59
2022/12/09 08:15:28;;;;;;;22.13;10.43;;;;;;;;;;5004706;28;20105;-59
2022/12/09 08:17:53;;;;;;;21.37;9.33;;;;;;;;;;5010943;28;20084;-59
2022/12/09 08:20:18;;;;;;;18.13;8.98;;;;;;;;;;5009177;28;20037;-61
2022/12/09 08:22:43;;;;;;;19.90;8.87;;;;;;;;;;5010622;28;20030;-59
2022/12/09 08:25:09;;;;;;;18.73;9.07;;;;;;;;;;5009653;28;20029;-59
2022/12/09 08:27:34;;;;;;;20.42;8.93;;;;;;;;;;5009894;28;20079;-59
2022/12/09 08:29:59;;;;;;;19.23;9.10;;;;;;;;;;5009971;28;20104;-58
2022/12/09 08:32:24;;;;;;;23.03;9.97;;;;;;;;;;5009665;28;20464;-59
2022/12/09 08:34:50;;;;;;;20.77;9.73;;;;;;;;;;5008575;28;20539;-59
2022/12/09 08:37:15;;;;;;;22.80;10.17;;;;;;;;;;5007721;28;20507;-59
2022/12/09 08:39:40;;;;;;;24.93;10.63;;;;;;;;;;5010116;28;20104;-58
2022/12/09 08:42:05;;;;;;;19.70;9.43;;;;;;;;;;5009099;28;20037;-58
2022/12/09 08:44:30;;;;;;;21.20;9.77;;;;;;;;;;5009833;28;20042;-58
2022/12/09 08:46:55;;;;;;;18.70;9.27;;;;;;;;;;5010631;28;20018;-58
2022/12/09 08:49:21;;;;;;;26.58;10.65;;;;;;;;;;5009798;28;20017;-58
2022/12/09 08:51:47;;;;;;;20.95;10.20;;;;;;;;;;5009199;28;20030;-58
2022/12/09 08:54:12;;;;;;;22.33;10.20;;;;;;;;;;5006087;28;20109;-59
2022/12/09 08:56:38;;;;;;;21.57;9.20;;;;;;;;;;5007744;28;20392;-58
2022/12/09 08:59:03;;;;;;;21.47;9.23;;;;;;;;;;5006085;28;20041;-58
2022/12/09 09:01:33;;;;;;;24.13;11.27;;;;;;;;;;5007662;28;20468;-59
2022/12/09 09:04:03;;;;;;;20.02;9.07;;;;;;;;;;5006936;28;20070;-59
2022/12/09 09:06:28;;;;;;;19.80;9.45;;;;;;;;;;5008922;28;20025;-58
2022/12/09 09:08:55;;;;;;;21.63;9.63;;;;;;;;;;5010128;28;20022;-58
2022/12/09 09:11:20;;;;;;;19.25;9.27;;;;;;;;;;5009593;28;20022;-59
2022/12/09 09:13:46;;;;;;;20.90;9.93;;;;;;;;;;5006223;28;20134;-60
2022/12/09 09:16:18;;;;;;;22.60;9.82;;;;;;;;;;5008478;28;20022;-62
2022/12/09 09:18:44;;;;;;;21.02;9.20;;;;;;;;;;5010670;28;20037;-59
2022/12/09 09:21:09;;;;;;;20.43;9.43;;;;;;;;;;5010653;28;20026;-61
2022/12/09 09:23:35;;;;;;;21.88;9.23;;;;;;;;;;5010417;28;20018;-59
2022/12/09 09:26:00;;;;;;;24.65;10.80;;;;;;;;;;5010445;28;20018;-60
2022/12/09 09:28:25;;;;;;;22.70;9.93;;;;;;;;;;5010332;28;20042;-59
2022/12/09 09:30:58;;;;;;;22.50;9.87;;;;;;;;;;4994589;28;20018;-58
2022/12/09 09:33:23;;;;;;;22.23;9.05;;;;;;;;;;5006118;28;20475;-60
2022/12/09 09:35:53;;;;;;;21.63;11.03;;;;;;;;;;5013712;28;20101;-59
2022/12/09 09:38:18;;;;;;;20.50;9.55;;;;;;;;;;5011887;28;20556;-59
2022/12/09 09:40:43;;;;;;;21.08;10.15;;;;;;;;;;5013447;28;20105;-59
2022/12/09 09:43:13;;;;;;;22.90;11.20;;;;;;;;;;5013565;28;20049;-59
2022/12/09 09:45:39;;;;;;;23.30;11.02;;;;;;;;;;5012883;28;20021;-59
2022/12/09 09:48:04;;;;;;;23.30;11.37;;;;;;;;;;5013201;28;20117;-59
2022/12/09 09:50:29;;;;;;;23.88;11.23;;;;;;;;;;5013654;28;20052;-59
2022/12/09 09:52:55;;;;;;;25.00;11.97;;;;;;;;;;5013379;28;20029;-59
2022/12/09 09:55:40;;;;;;;24.70;11.35;;;;;;;;;;5011778;28;20036;-59
2022/12/09 09:58:12;;;;;;;22.98;11.20;;;;;;;;;;5012552;28;20029;-59
2022/12/09 10:00:42;;;;;;;23.33;10.90;;;;;;;;;;5013221;28;20025;-60
2022/12/09 10:03:12;;;;;;;25.20;11.88;;;;;;;;;;5003734;28;20225;-58
2022/12/09 10:05:54;;;;;;;23.55;11.55;;;;;;;;;;5002817;28;20026;-58
2022/12/09 10:08:38;;;;;;;25.60;11.80;;;;;;;;;;4990883;28;20030;-59
2022/12/09 10:11:03;;;;;;;28.00;11.73;;;;;;;;;;5010025;28;20037;-59
2022/12/09 10:13:46;;;;;;;23.45;11.98;;;;;;;;;;5012030;28;20054;-59
2022/12/09 10:16:14;;;;;;;26.73;12.35;;;;;;;;;;5009352;28;20038;-60
2022/12/09 10:18:57;;;;;;;24.90;12.45;;;;;;;;;;5013211;28;20495;-59
2022/12/09 10:21:23;;;;;;;23.30;11.07;;;;;;;;;;5003995;28;20454;-58
2022/12/09 10:23:48;;;;;;;24.53;11.07;;;;;;;;;;5013047;28;20018;-59
2022/12/09 10:26:23;;;;;;;25.33;11.77;;;;;;;;;;5012834;28;20026;-59
2022/12/09 10:28:53;;;;;;;30.42;12.30;;;;;;;;;;5012792;28;20061;-59
2022/12/09 10:31:18;;;;;;;28.98;13.05;;;;;;;;;;5012951;28;20037;-59
2022/12/09 10:33:43;;;;;;;24.97;11.57;;;;;;;;;;5012553;28;20390;-59
2022/12/09 10:36:20;;;;;;;26.93;11.90;;;;;;;;;;5010068;28;20445;-59
2022/12/09 10:38:45;;;;;;;29.08;14.00;;;;;;;;;;4990474;28;20026;-59
2022/12/09 10:43:33;;;;;;;27.80;12.87;;;;;;;;;;4992752;28;20105;-59
2022/12/09 10:44:16;;;;;;;28.20;12.52;;;;;;;;;;4992474;28;20030;-59
2022/12/09 10:46:41;;;;;;;26.98;12.35;;;;;;;;;;4992141;28;20030;-59
2022/12/09 10:49:13;;;;;;;27.13;12.97;;;;;;;;;;4992716;28;20027;-59
2022/12/09 10:51:46;;;;;;;27.15;13.60;;;;;;;;;;5005012;28;20484;-59
2022/12/09 10:54:11;;;;;;;26.42;12.48;;;;;;;;;;5011422;28;20464;-59
2022/12/09 10:56:37;;;;;;;30.80;13.88;;;;;;;;;;5012261;28;20041;-59
2022/12/09 10:59:08;;;;;;;26.42;12.85;;;;;;;;;;5011987;28;20037;-59
2022/12/09 11:01:53;;;;;;;27.10;12.48;;;;;;;;;;5011918;28;20044;-59
2022/12/09 11:04:23;;;;;;;27.52;12.52;;;;;;;;;;5011903;28;20469;-59
2022/12/09 11:06:48;;;;;;;21.90;11.60;;;;;;;;;;5011827;28;20449;-59
2022/12/09 11:09:23;;;;;;;24.27;11.57;;;;;;;;;;5011760;28;20105;-60
2022/12/09 11:11:49;;;;;;;25.90;12.43;;;;;;;;;;5011102;28;20117;-59
2022/12/09 11:14:32;;;;;;;24.45;12.10;;;;;;;;;;5011393;28;20129;-59
2022/12/09 11:16:59;;;;;;;24.08;11.85;;;;;;;;;;4989389;28;20068;-59
2022/12/09 11:19:32;;;;;;;25.25;11.30;;;;;;;;;;5008347;28;20026;-60
2022/12/09 11:22:21;;;;;;;26.08;12.02;;;;;;;;;;5009606;28;20369;-60
2022/12/09 11:24:47;;;;;;;24.95;12.68;;;;;;;;;;5001436;28;20104;-59
2022/12/09 11:27:23;;;;;;;27.90;12.75;;;;;;;;;;5010486;28;20109;-60
2022/12/09 11:30:02;;;;;;;26.40;12.48;;;;;;;;;;5010971;28;20056;-61
2022/12/09 11:32:28;;;;;;;23.55;11.63;;;;;;;;;;5011553;28;20032;-58
2022/12/09 11:34:53;;;;;;;28.87;12.70;;;;;;;;;;5008896;28;20022;-59
2022/12/09 11:37:18;;;;;;;26.70;11.93;;;;;;;;;;5010475;28;20464;-59
2022/12/09 11:39:47;;;;;;;24.00;11.27;;;;;;;;;;5010303;28;20033;-59
2022/12/09 11:42:17;;;;;;;23.88;11.77;;;;;;;;;;5009776;28;20108;-59
2022/12/09 11:44:57;;;;;;;25.02;12.23;;;;;;;;;;5009587;28;20042;-58
2022/12/09 11:47:33;;;;;;;24.25;12.40;;;;;;;;;;5007540;28;20080;-58
2022/12/09 11:50:16;;;;;;;26.80;11.75;;;;;;;;;;5008373;28;20029;-58
2022/12/09 11:52:42;;;;;;;28.20;12.15;;;;;;;;;;5011207;28;20464;-59
2022/12/09 11:55:13;;;;;;;23.15;10.88;;;;;;;;;;5008070;28;20116;-59
2022/12/09 11:57:49;;;;;;;25.33;11.65;;;;;;;;;;4999119;28;20142;-59
2022/12/09 12:00:21;;;;;;;26.48;10.77;;;;;;;;;;4989346;28;20034;-59
2022/12/09 12:02:51;;;;;;;26.30;11.40;;;;;;;;;;5008580;28;20033;-58
2022/12/09 12:05:20;;;;;;;27.73;11.45;;;;;;;;;;5009653;28;20028;-58
2022/12/09 12:07:48;;;;;;;23.15;10.93;;;;;;;;;;5009743;28;20030;-59
2022/12/09 12:10:21;;;;;;;22.30;11.25;;;;;;;;;;5008525;28;20068;-58
2022/12/09 12:12:53;;;;;;;24.00;10.88;;;;;;;;;;5009665;28;20053;-58
2022/12/09 12:15:19;;;;;;;;;;;;;;;;;;5008941;28;20084;-60
2022/12/09 12:17:48;;;;;;;24.08;10.85;;;;;;;;;;5009558;28;19917;-59
2022/12/09 12:20:13;;;;;;;22.50;11.50;;;;;;;;;;5008258;28;20026;-59
2022/12/09 12:22:51;;;;;;;22.50;10.20;;;;;;;;;;5008329;28;20032;-59
2022/12/09 12:25:25;;;;;;;21.67;10.57;;;;;;;;;;5010069;28;20014;-59
2022/12/09 12:28:09;;;;;;;22.17;10.60;;;;;;;;;;5009724;28;20030;-58
2022/12/09 12:30:58;;;;;;;22.13;10.35;;;;;;;;;;5010276;28;20049;-60
2022/12/09 12:33:33;;;;;;;20.65;10.52;;;;;;;;;;5009808;28;20026;-59
2022/12/09 12:36:02;;;;;;;17.15;9.32;;;;;;;;;;5009405;28;20030;-59
2022/12/09 12:38:30;;;;;;;21.60;10.20;;;;;;;;;;5009411;28;20036;-59
2022/12/09 12:41:04;;;;;;;22.75;11.15;;;;;;;;;;4993438;28;20041;-59
2022/12/09 12:46:19;;;;;;;20.23;9.65;;;;;;;;;;5007217;28;20031;-60
2022/12/09 12:48:51;;;;;;;24.10;10.13;;;;;;;;;;5008851;28;20046;-60
2022/12/09 12:51:28;;;;;;;23.40;11.02;;;;;;;;;;5009100;28;20472;-59
2022/12/09 12:54:08;;;;;;;22.15;11.63;;;;;;;;;;5009704;28;20039;-60
2022/12/09 12:56:43;;;;;;;20.58;10.63;;;;;;;;;;5006823;28;20034;-59
2022/12/09 12:59:14;;;;;;;21.00;10.52;;;;;;;;;;5004911;28;20029;-60
2022/12/09 13:01:53;;;;;;;22.10;10.35;;;;;;;;;;5000682;28;20023;-60
2022/12/09 13:04:30;;;;;;;19.55;9.50;;;;;;;;;;4999750;28;20022;-58
2022/12/09 13:06:59;;;;;;;24.33;10.93;;;;;;;;;;5014406;28;20125;-58
2022/12/09 13:09:24;;;;;;;24.13;11.40;;;;;;;;;;5013380;28;20018;-58
2022/12/09 13:12:02;;;;;;;23.80;10.88;;;;;;;;;;5014594;28;20013;-59
2022/12/09 13:14:31;;;;;;;23.45;10.70;;;;;;;;;;5013139;28;20060;-58
2022/12/09 13:16:57;;;;;;;22.50;10.20;;;;;;;;;;5012908;28;20114;-59
2022/12/09 13:19:28;;;;;;;23.38;11.40;;;;;;;;;;5012823;28;20026;-59
2022/12/09 13:21:53;;;;;;;26.75;11.93;;;;;;;;;;5011117;28;20042;-59
2022/12/09 13:24:30;;;;;;;23.75;11.18;;;;;;;;;;5013439;28;20026;-58
2022/12/09 13:27:01;;;;;;;20.90;10.38;;;;;;;;;;5013425;28;20113;-58
2022/12/09 13:29:40;;;;;;;22.33;10.82;;;;;;;;;;5011330;28;20541;-59
2022/12/09 13:32:18;;;;;;;22.85;10.73;;;;;;;;;;5012074;28;20033;-59
2022/12/09 13:34:53;;;;;;;24.00;10.75;;;;;;;;;;5010279;28;20037;-59
2022/12/09 13:37:30;;;;;;;24.25;12.18;;;;;;;;;;5013750;28;20550;-58
2022/12/09 13:39:57;;;;;;;26.73;12.10;;;;;;;;;;5013581;28;20124;-58
2022/12/09 13:45:24;;;;;;;24.92;11.90;;;;;;;;;;5012964;28;20092;-59
2022/12/09 13:47:52;;;;;;;21.92;10.90;;;;;;;;;;5013682;28;20018;-59
2022/12/09 13:50:26;;;;;;;25.00;11.32;;;;;;;;;;5011681;28;20093;-58
2022/12/09 13:52:55;;;;;;;22.85;11.30;;;;;;;;;;4993393;28;20018;-59
2022/12/09 13:55:20;;;;;;;23.10;11.25;;;;;;;;;;4992027;28;20030;-59
2022/12/09 13:57:52;;;;;;;24.50;11.43;;;;;;;;;;4997330;28;20143;-59
2022/12/09 14:00:17;;;;;;;24.60;11.93;;;;;;;;;;5002609;28;20006;-58
2022/12/09 14:02:54;;;;;;;24.98;12.25;;;;;;;;;;5003593;28;20814;-59
2022/12/09 14:05:27;;;;;;;22.63;11.93;;;;;;;;;;5009788;28;20092;-59
2022/12/09 14:07:52;;;;;;;23.38;12.80;;;;;;;;;;5004570;28;20102;-59
2022/12/09 14:10:41;;;;;;;23.75;11.25;;;;;;;;;;5011333;28;20109;-59
2022/12/09 14:13:24;;;;;;;24.23;10.98;;;;;;;;;;5009563;28;20400;-59
2022/12/09 14:16:08;;;;;;;24.13;11.48;;;;;;;;;;5012115;28;20104;-58
2022/12/09 14:18:33;;;;;;;22.50;11.13;;;;;;;;;;5010438;28;20578;-58
2022/12/09 14:21:24;;;;;;;22.75;10.77;;;;;;;;;;5013233;28;20045;-58
2022/12/09 14:24:08;;;;;;;21.35;9.80;;;;;;;;;;5007708;28;20408;-59
2022/12/09 14:26:34;;;;;;;23.50;11.80;;;;;;;;;;5010677;28;20052;-58
2022/12/09 14:28:59;;;;;;;19.63;10.57;;;;;;;;;;5011969;28;20017;-58
2022/12/09 14:31:43;;;;;;;23.57;12.27;;;;;;;;;;5011640;28;20446;-59
2022/12/09 14:34:09;;;;;;;;;;;;;;;;;;5012714;28;20022;-60
2022/12/09 14:36:34;;;;;;;22.10;11.25;;;;;;;;;;5006340;28;20008;-60
2022/12/09 14:39:17;;;;;;;26.40;12.43;;;;;;;;;;5007663;28;20029;-59